Rancho Viejo, Texas
Current Conditions -  °F | °C
As of 1:53 AM on Monday 26 Jan 2015 (Local Time) from KBRO Reporting Station
Clear Clear  
Wind Chill: 51°   Ceiling: Unl
Heat Index: 51°   Visibility: 10mi
Dew Point: 45°   Wind: 5mph
Humidity: 80%   Direction: 290°WNW
Pressure: 30.23"   Gusts: NA
Location:  26.0347°N, 97.5478°W
Report Text: KBRO 260753Z AUTO 29004KT 10SM CLR 11/07 A3023 RMK AO2 SLP236 T01060072
Loading
Personal Weather Stations






























Interactive Weather Map New forecast layout! Learn more

10-Day Weather Forecast

Advertisements
Track Severe Weather on mobile